createdAt,value
2018-06-30T00:00:31.243Z,21.20
2018-06-30T00:04:04.520Z,21.20
2018-06-30T00:07:37.807Z,21.10
2018-06-30T00:11:11.052Z,21.00
2018-06-30T00:14:44.319Z,21.00
2018-06-30T00:18:17.579Z,20.90
2018-06-30T00:21:50.833Z,20.90
2018-06-30T00:25:24.080Z,20.90
2018-06-30T00:28:57.342Z,20.80
2018-06-30T00:32:30.603Z,20.70
2018-06-30T00:36:03.914Z,20.70
2018-06-30T00:39:37.180Z,20.60
2018-06-30T00:43:10.424Z,20.60
2018-06-30T00:46:43.664Z,20.50
2018-06-30T00:50:16.930Z,20.40
2018-06-30T00:53:50.235Z,20.30
2018-06-30T00:57:23.851Z,20.20
2018-06-30T01:00:57.183Z,20.20
2018-06-30T01:04:30.434Z,20.20
2018-06-30T01:08:03.736Z,20.10
2018-06-30T01:11:36.999Z,20.10
2018-06-30T01:15:10.224Z,20.10
2018-06-30T01:18:43.489Z,20.00
2018-06-30T01:25:49.755Z,20.00
2018-06-30T01:29:23.006Z,19.90
2018-06-30T01:32:56.270Z,19.90
2018-06-30T01:36:29.541Z,19.80
2018-06-30T01:40:02.797Z,19.70
2018-06-30T01:47:09.087Z,19.70
2018-06-30T01:50:42.352Z,19.60
2018-06-30T01:54:15.588Z,19.50
2018-06-30T01:57:48.861Z,19.50
2018-06-30T02:01:22.125Z,19.50
2018-06-30T02:04:55.364Z,19.40
2018-06-30T02:08:28.611Z,19.40
2018-06-30T02:12:01.864Z,19.30
2018-06-30T02:15:35.116Z,19.20
2018-06-30T02:19:08.612Z,19.20
2018-06-30T02:22:41.857Z,19.20
2018-06-30T02:26:15.100Z,19.20
2018-06-30T02:29:48.340Z,19.20
2018-06-30T02:33:21.600Z,19.20
2018-06-30T02:36:54.859Z,19.20
2018-06-30T02:40:28.226Z,19.20
2018-06-30T02:44:01.456Z,19.10
2018-06-30T02:47:34.725Z,19.10
2018-06-30T02:51:07.976Z,19.00
2018-06-30T02:54:41.222Z,19.00
2018-06-30T02:58:14.468Z,18.90
2018-06-30T03:01:47.737Z,18.90
2018-06-30T03:05:21.002Z,18.90
2018-06-30T03:08:54.252Z,18.90
2018-06-30T03:12:27.494Z,18.90
2018-06-30T03:19:33.755Z,18.80
2018-06-30T03:23:07.128Z,18.70
2018-06-30T03:26:40.361Z,18.70
2018-06-30T03:30:13.613Z,18.70
2018-06-30T03:33:46.850Z,18.60
2018-06-30T03:37:20.106Z,18.60
2018-06-30T03:40:53.378Z,18.60
2018-06-30T03:44:26.628Z,18.60
2018-06-30T03:47:59.872Z,18.60
2018-06-30T03:51:33.128Z,18.60
2018-06-30T03:55:06.412Z,18.60
2018-06-30T03:58:39.669Z,18.60
2018-06-30T04:02:12.908Z,18.60
2018-06-30T04:05:46.164Z,18.70
2018-06-30T04:09:19.445Z,18.70
2018-06-30T04:12:52.708Z,18.70
2018-06-30T04:16:25.960Z,18.70
2018-06-30T04:19:59.217Z,18.70
2018-06-30T04:23:32.453Z,18.70
2018-06-30T04:27:05.711Z,18.80
2018-06-30T04:30:38.957Z,18.80
2018-06-30T04:34:12.224Z,18.80
2018-06-30T04:37:45.459Z,18.80
2018-06-30T04:41:18.700Z,18.80
2018-06-30T04:44:51.932Z,18.90
2018-06-30T04:48:25.169Z,18.90
2018-06-30T04:51:58.400Z,19.00
2018-06-30T04:55:31.659Z,19.00
2018-06-30T04:59:04.950Z,19.00
2018-06-30T05:02:38.244Z,19.10
2018-06-30T05:06:11.581Z,19.30
2018-06-30T05:20:23.785Z,19.70
2018-06-30T05:23:57.031Z,19.80
2018-06-30T05:27:30.253Z,19.90
2018-06-30T05:31:03.515Z,20.00
2018-06-30T05:34:36.754Z,20.10
2018-06-30T05:38:09.996Z,20.20
2018-06-30T05:41:43.249Z,20.30
2018-06-30T05:45:16.536Z,20.40
2018-06-30T05:48:49.767Z,20.50
2018-06-30T05:59:29.244Z,20.90
2018-06-30T06:03:02.395Z,21.00
2018-06-30T06:06:37.921Z,21.10
2018-06-30T06:10:11.159Z,21.20
2018-06-30T06:13:44.491Z,21.30
2018-06-30T06:17:17.704Z,21.40
2018-06-30T06:20:50.951Z,21.50
2018-06-30T06:24:24.453Z,21.70
2018-06-30T06:27:57.685Z,21.80
2018-06-30T06:31:30.929Z,21.90
2018-06-30T06:35:04.455Z,22.00
2018-06-30T06:38:37.707Z,22.10
2018-06-30T06:42:10.940Z,22.20
2018-06-30T06:45:44.190Z,22.30
2018-06-30T06:49:17.536Z,22.30
2018-06-30T06:52:50.764Z,22.40
2018-06-30T06:56:24.068Z,22.50
2018-06-30T06:59:57.302Z,22.70
2018-06-30T07:03:30.600Z,22.70
2018-06-30T07:07:03.840Z,22.80
2018-06-30T07:10:37.088Z,22.90
2018-06-30T07:14:10.948Z,23.00
2018-06-30T07:17:44.185Z,23.10
2018-06-30T07:21:17.426Z,23.20
2018-06-30T07:28:23.707Z,23.40
2018-06-30T07:31:56.944Z,23.50
2018-06-30T07:35:30.229Z,23.60
2018-06-30T07:42:37.956Z,23.70
2018-06-30T07:49:44.188Z,23.90
2018-06-30T07:53:18.107Z,24.00
2018-06-30T07:56:51.352Z,24.10
2018-06-30T08:00:24.608Z,24.10
2018-06-30T08:03:57.900Z,24.20
2018-06-30T08:07:31.849Z,24.30
2018-06-30T08:11:05.079Z,24.40
2018-06-30T08:18:11.297Z,24.50
2018-06-30T08:21:44.576Z,24.60
2018-06-30T08:25:17.829Z,24.60
2018-06-30T08:28:51.076Z,24.60
2018-06-30T08:32:24.384Z,24.60
2018-06-30T08:35:57.608Z,24.60
2018-06-30T08:39:30.856Z,24.60
2018-06-30T08:43:04.114Z,24.60
2018-06-30T08:50:10.866Z,24.60
2018-06-30T08:53:44.092Z,24.70
2018-06-30T08:57:17.341Z,24.70
2018-06-30T09:00:50.599Z,24.80
2018-06-30T09:04:23.848Z,24.80
2018-06-30T09:07:57.127Z,24.80
2018-06-30T09:11:30.355Z,24.80
2018-06-30T09:15:03.743Z,24.80
2018-06-30T09:18:36.999Z,24.90
2018-06-30T09:22:10.245Z,24.90
2018-06-30T09:25:43.468Z,25.00
2018-06-30T09:29:16.723Z,25.10
2018-06-30T09:32:50.224Z,25.30
2018-06-30T09:36:23.521Z,25.40
2018-06-30T09:39:56.756Z,25.60
2018-06-30T09:43:30.060Z,25.70
2018-06-30T09:47:03.301Z,25.70
2018-06-30T09:50:36.632Z,25.70
2018-06-30T09:54:09.903Z,25.70
2018-06-30T09:57:43.160Z,25.90
2018-06-30T10:01:16.421Z,25.90
2018-06-30T10:04:49.660Z,25.90
2018-06-30T10:08:22.925Z,25.90
2018-06-30T10:11:56.190Z,26.10
2018-06-30T10:19:02.433Z,26.20
2018-06-30T10:22:35.701Z,26.20
2018-06-30T10:26:08.996Z,26.10
2018-06-30T10:29:42.288Z,26.10
2018-06-30T10:36:48.581Z,25.90
2018-06-30T10:40:22.367Z,25.90
2018-06-30T10:43:55.616Z,26.00
2018-06-30T10:47:28.899Z,26.10
2018-06-30T10:51:02.179Z,26.30
2018-06-30T10:54:35.468Z,26.30
2018-06-30T10:58:08.727Z,26.30
2018-06-30T11:01:41.973Z,26.40
2018-06-30T11:05:15.285Z,26.40
2018-06-30T11:08:48.531Z,26.40
2018-06-30T11:12:21.761Z,26.40
2018-06-30T11:15:54.995Z,26.40
2018-06-30T11:19:28.255Z,26.30
2018-06-30T11:23:01.528Z,26.30
2018-06-30T11:26:34.893Z,26.30
2018-06-30T11:33:41.168Z,26.40
2018-06-30T11:37:14.511Z,26.50
2018-06-30T11:40:47.795Z,26.50
2018-06-30T11:44:21.020Z,26.50
2018-06-30T11:47:54.259Z,26.60
2018-06-30T11:51:27.511Z,26.70
2018-06-30T11:55:00.768Z,26.60
2018-06-30T11:58:34.035Z,26.60
2018-06-30T12:02:07.317Z,26.60
2018-06-30T12:05:40.600Z,26.60
2018-06-30T12:09:13.910Z,26.60
2018-06-30T12:12:47.131Z,26.70
2018-06-30T12:16:20.363Z,26.70
2018-06-30T12:19:53.660Z,26.80
2018-06-30T12:23:26.892Z,26.80
2018-06-30T12:34:06.232Z,26.90
2018-06-30T12:37:39.478Z,26.90
2018-06-30T12:41:12.770Z,26.80
2018-06-30T12:44:46.003Z,26.80
2018-06-30T12:48:19.263Z,26.80
2018-06-30T12:51:52.498Z,26.80
2018-06-30T12:55:25.764Z,26.80
2018-06-30T12:58:59.025Z,26.80
2018-06-30T13:02:32.272Z,26.80
2018-06-30T13:06:05.598Z,26.80
2018-06-30T13:09:38.821Z,26.90
2018-06-30T13:13:12.049Z,27.00
2018-06-30T13:16:45.327Z,27.10
2018-06-30T13:20:18.628Z,27.20
2018-06-30T13:23:51.903Z,27.20
2018-06-30T13:27:25.252Z,27.40
2018-06-30T13:30:58.516Z,27.50
2018-06-30T13:34:31.864Z,27.70
2018-06-30T13:38:05.088Z,27.90
2018-06-30T13:41:38.369Z,28.00
2018-06-30T13:45:11.919Z,28.00
2018-06-30T13:48:45.167Z,28.20
2018-06-30T13:52:18.418Z,28.40
2018-06-30T13:55:51.687Z,28.50
2018-06-30T13:59:24.931Z,28.70
2018-06-30T14:02:58.168Z,28.70
2018-06-30T14:06:31.409Z,28.80
2018-06-30T14:10:05.535Z,29.00
2018-06-30T14:13:38.798Z,29.10
2018-06-30T14:17:12.011Z,29.20
2018-06-30T14:24:18.382Z,29.50
2018-06-30T14:27:51.619Z,29.70
2018-06-30T14:31:24.867Z,29.80
2018-06-30T14:34:58.112Z,29.90
2018-06-30T14:38:31.377Z,30.10
2018-06-30T14:42:04.633Z,30.20
2018-06-30T14:45:37.886Z,30.20
2018-06-30T14:49:11.138Z,30.30
2018-06-30T14:52:44.407Z,30.40
2018-06-30T14:59:50.668Z,30.80
2018-06-30T15:03:23.915Z,31.10
2018-06-30T15:06:57.206Z,31.40
2018-06-30T15:10:30.459Z,31.60
2018-06-30T15:14:03.800Z,31.90
2018-06-30T15:17:37.424Z,32.10
2018-06-30T15:21:10.689Z,32.20
2018-06-30T15:24:43.971Z,32.30
2018-06-30T15:28:17.238Z,32.30
2018-06-30T15:31:50.477Z,32.40
2018-06-30T15:35:23.787Z,32.50
2018-06-30T15:38:57.142Z,32.60
2018-06-30T15:42:30.444Z,32.50
2018-06-30T15:46:03.784Z,32.50
2018-06-30T15:49:37.068Z,32.70
2018-06-30T15:53:10.329Z,32.90
2018-06-30T15:56:43.707Z,32.90
2018-06-30T16:00:17.035Z,32.80
2018-06-30T16:03:50.370Z,32.80
2018-06-30T16:07:23.701Z,32.80
2018-06-30T16:10:56.922Z,32.90
2018-06-30T16:14:30.205Z,32.90
2018-06-30T16:21:37.190Z,33.10
2018-06-30T16:25:10.469Z,33.10
2018-06-30T16:28:43.747Z,33.00
2018-06-30T16:32:17.002Z,32.60
2018-06-30T16:35:50.241Z,31.90
2018-06-30T16:39:23.569Z,31.20
2018-06-30T16:42:56.807Z,30.40
2018-06-30T16:46:30.068Z,29.70
2018-06-30T16:50:03.366Z,29.20
2018-06-30T16:53:36.628Z,28.70
2018-06-30T16:57:09.877Z,28.40
2018-06-30T17:00:43.137Z,28.00
2018-06-30T17:04:16.409Z,27.70
2018-06-30T17:07:50.166Z,27.50
2018-06-30T17:11:23.415Z,27.40
2018-06-30T17:14:56.721Z,27.30
2018-06-30T17:18:30.089Z,27.10
2018-06-30T17:25:36.433Z,26.80
2018-06-30T17:29:09.689Z,26.60
2018-06-30T17:32:42.941Z,26.50
2018-06-30T17:36:16.181Z,26.30
2018-06-30T17:39:49.428Z,26.30
2018-06-30T17:43:22.710Z,26.10
2018-06-30T17:46:55.991Z,26.00
2018-06-30T17:50:29.288Z,25.90
2018-06-30T17:54:02.679Z,25.80
2018-06-30T17:57:35.912Z,25.70
2018-06-30T18:01:09.154Z,25.60
2018-06-30T18:08:15.924Z,25.40
2018-06-30T18:11:49.284Z,25.30
2018-06-30T18:15:22.745Z,25.20
2018-06-30T18:18:56.133Z,25.10
2018-06-30T18:22:29.868Z,25.00
2018-06-30T18:29:37.037Z,24.80
2018-06-30T18:33:10.297Z,24.70
2018-06-30T18:36:43.527Z,24.60
2018-06-30T18:40:16.825Z,24.60
2018-06-30T18:43:50.097Z,24.50
2018-06-30T18:47:23.343Z,24.40
2018-06-30T18:50:56.615Z,24.30
2018-06-30T18:54:29.904Z,24.20
2018-06-30T18:58:03.179Z,24.10
2018-06-30T19:01:36.645Z,24.00
2018-06-30T19:05:09.896Z,23.90
2018-06-30T19:12:16.197Z,23.80
2018-06-30T19:15:49.845Z,23.60
2018-06-30T19:22:56.044Z,23.40
2018-06-30T19:26:29.296Z,23.30
2018-06-30T19:30:03.080Z,23.20
2018-06-30T19:33:36.343Z,23.10
2018-06-30T19:37:09.571Z,23.00
2018-06-30T19:40:42.839Z,22.90
2018-06-30T19:44:16.075Z,22.80
2018-06-30T19:47:49.324Z,22.70
2018-06-30T19:51:22.569Z,22.60
2018-06-30T19:54:56.744Z,22.60
2018-06-30T19:58:29.988Z,22.50
2018-06-30T20:02:03.321Z,22.40
2018-06-30T20:09:10.189Z,22.20
2018-06-30T20:12:43.476Z,22.10
2018-06-30T20:16:16.728Z,22.00
2018-06-30T20:23:23.142Z,21.90
2018-06-30T20:26:56.396Z,21.80
2018-06-30T20:30:29.656Z,21.70
2018-06-30T20:34:02.921Z,21.60
2018-06-30T20:37:36.175Z,21.60
2018-06-30T20:41:09.444Z,21.50
2018-06-30T20:44:42.702Z,21.40
2018-06-30T20:48:16.355Z,21.30
2018-06-30T20:51:49.600Z,21.30
2018-06-30T20:55:22.832Z,21.20
2018-06-30T20:58:56.083Z,21.10
2018-06-30T21:02:29.400Z,21.10
2018-06-30T21:06:02.634Z,21.10
2018-06-30T21:09:36.288Z,21.00
2018-06-30T21:13:09.556Z,21.00
2018-06-30T21:16:42.840Z,20.90
2018-06-30T21:20:16.080Z,20.90
2018-06-30T21:23:49.399Z,20.80
2018-06-30T21:27:22.655Z,20.70
2018-06-30T21:30:55.897Z,20.70
2018-06-30T21:34:29.145Z,20.60
2018-06-30T21:38:02.396Z,20.60
2018-06-30T21:41:35.631Z,20.50
2018-06-30T21:45:08.863Z,20.40
2018-06-30T21:48:42.092Z,20.40
2018-06-30T21:52:15.412Z,20.30
2018-06-30T21:55:48.669Z,20.30
2018-06-30T21:59:21.913Z,20.20
2018-06-30T22:02:55.144Z,20.20
2018-06-30T22:06:28.372Z,20.10
2018-06-30T22:10:01.606Z,20.10
2018-06-30T22:13:34.859Z,20.00
2018-06-30T22:17:08.068Z,19.90
2018-06-30T22:20:41.314Z,19.90
2018-06-30T22:24:14.551Z,19.80
2018-06-30T22:27:47.792Z,19.70
2018-06-30T22:31:21.055Z,19.70
2018-06-30T22:34:54.275Z,19.60
2018-06-30T22:38:27.487Z,19.50
2018-06-30T22:42:00.708Z,19.40
2018-06-30T22:45:33.946Z,19.40
2018-06-30T22:52:40.973Z,19.30
2018-06-30T22:56:14.281Z,19.30
2018-06-30T22:59:47.544Z,19.20
2018-06-30T23:03:20.808Z,19.20
2018-06-30T23:06:54.358Z,19.10
2018-06-30T23:10:27.605Z,19.10
2018-06-30T23:14:00.859Z,19.00
2018-06-30T23:17:34.139Z,18.90
2018-06-30T23:21:07.373Z,18.80
2018-06-30T23:24:40.620Z,18.80
2018-06-30T23:28:13.855Z,18.70
2018-06-30T23:31:47.104Z,18.70
2018-06-30T23:35:21.003Z,18.60
2018-06-30T23:38:54.224Z,18.60
2018-06-30T23:42:27.553Z,18.50
2018-06-30T23:46:00.775Z,18.50
2018-06-30T23:53:07.010Z,18.30
2018-06-30T23:56:40.273Z,18.20
